Time;durP1;ratioP1;P1;durP2;ratioP2;P2;SDS_P1;SDS_P2;PMS_P1;PMS_P2;Temp;Humidity;BMP_temperature;BMP_pressure;BME280_temperature;BME280_humidity;BME280_pressure;Samples;Min_cycle;Max_cycle;Signal;HPM_P1;HPM_P2
2023/06/12 00:01:16;;;;;;;11.45;6.78;;;;;;;17.12;49.94;101666.81;5035286;28;20053;-60
2023/06/12 00:03:43;;;;;;;10.05;7.13;;;;;;;17.08;49.55;101667.09;5034341;28;20045;-59
2023/06/12 00:06:10;;;;;;;8.73;6.40;;;;;;;17.03;49.66;101668.22;5033193;28;20080;-59
2023/06/12 00:08:41;;;;;;;15.63;7.43;;;;;;;17.00;49.50;101681.75;5025818;28;20446;-58
2023/06/12 00:11:09;;;;;;;;;;;;;;;16.96;49.31;101664.19;5014839;28;20073;-59
2023/06/12 00:13:36;;;;;;;9.23;6.18;;;;;;;16.98;49.13;101667.63;5034793;28;19937;-60
2023/06/12 00:16:03;;;;;;;7.75;5.60;;;;;;;16.92;49.06;101670.66;5035061;28;20103;-59
2023/06/12 00:18:30;;;;;;;11.20;6.93;;;;;;;16.88;49.24;101669.94;5027658;28;20050;-60
2023/06/12 00:20:57;;;;;;;11.05;6.40;;;;;;;16.93;48.83;101676.84;5028544;28;20492;-59
2023/06/12 00:23:24;;;;;;;10.13;6.30;;;;;;;16.89;48.85;101670.84;5024959;28;20057;-59
2023/06/12 00:25:51;;;;;;;8.40;5.93;;;;;;;16.88;48.75;101663.75;5022900;28;20053;-60
2023/06/12 00:28:17;;;;;;;10.48;6.13;;;;;;;16.81;48.57;101665.91;5026599;28;20050;-59
2023/06/12 00:30:44;;;;;;;15.63;5.47;;;;;;;16.81;48.51;101662.38;5025803;28;20111;-59
2023/06/12 00:33:11;;;;;;;10.00;5.82;;;;;;;16.73;48.71;101664.63;5024396;28;20057;-61
2023/06/12 00:35:37;;;;;;;8.70;6.13;;;;;;;16.74;49.03;101669.00;5025606;28;20096;-59
2023/06/12 00:38:06;;;;;;;7.18;5.57;;;;;;;16.64;49.48;101666.88;5017824;28;20048;-58
2023/06/12 00:40:32;;;;;;;9.38;5.97;;;;;;;16.61;49.18;101667.03;5023692;28;20199;-60
2023/06/12 00:42:59;;;;;;;11.15;6.70;;;;;;;16.57;49.13;101670.81;5024399;28;20053;-59
2023/06/12 00:45:26;;;;;;;8.90;6.22;;;;;;;16.55;49.08;101670.03;5024950;28;20435;-58
2023/06/12 00:47:56;;;;;;;9.98;5.72;;;;;;;16.46;49.33;101668.78;5025616;28;20100;-59
2023/06/12 00:50:26;;;;;;;8.85;6.55;;;;;;;16.40;49.51;101662.91;5025427;28;20045;-60
2023/06/12 00:52:54;;;;;;;10.82;6.40;;;;;;;16.31;49.90;101670.50;5016689;28;20363;-60
2023/06/12 00:55:21;;;;;;;8.50;6.25;;;;;;;16.26;49.80;101666.34;5023179;28;20136;-60
2023/06/12 00:57:48;;;;;;;12.70;6.72;;;;;;;16.16;50.00;101676.66;5023854;28;20623;-59
2023/06/12 01:00:17;;;;;;;8.38;5.90;;;;;;;16.03;50.66;101672.94;5026682;28;20041;-59
2023/06/12 01:02:50;;;;;;;8.77;5.25;;;;;;;15.91;50.88;101672.63;5034392;28;20379;-59
2023/06/12 01:05:32;;;;;;;9.10;5.93;;;;;;;15.88;50.96;101675.47;5025835;28;20500;-59
2023/06/12 01:08:15;;;;;;;11.02;6.20;;;;;;;15.95;51.04;101673.31;5023583;28;20049;-59
2023/06/12 01:10:51;;;;;;;9.55;5.57;;;;;;;15.90;51.22;101676.22;5008135;28;20085;-59
2023/06/12 01:13:18;;;;;;;9.38;5.38;;;;;;;15.92;51.51;101673.50;5019514;28;20129;-59
2023/06/12 01:15:44;;;;;;;11.98;6.22;;;;;;;15.84;52.10;101675.69;5028837;28;20045;-59
2023/06/12 01:18:11;;;;;;;9.63;5.72;;;;;;;15.72;51.77;101682.53;5027940;28;20045;-60
2023/06/12 01:20:40;;;;;;;8.48;5.47;;;;;;;15.65;51.86;101678.47;5011290;28;20046;-59
2023/06/12 01:23:18;;;;;;;6.90;5.28;;;;;;;15.59;51.26;101687.63;5025800;28;20456;-59
2023/06/12 01:26:03;;;;;;;10.23;5.70;;;;;;;15.57;51.23;101679.72;5023633;28;20100;-59
2023/06/12 01:29:01;;;;;;;11.85;5.82;;;;;;;15.51;50.90;101673.84;5021023;28;20041;-59
2023/06/12 01:32:01;;;;;;;8.07;5.75;;;;;;;15.47;51.03;101681.13;5024153;28;20085;-60
2023/06/12 01:34:54;;;;;;;11.82;6.47;;;;;;;15.41;51.75;101676.13;5023877;28;20175;-59
2023/06/12 01:37:31;;;;;;;8.82;5.15;;;;;;;15.31;51.62;101682.84;5023530;28;20052;-59
2023/06/12 01:39:59;;;;;;;6.93;5.25;;;;;;;15.23;51.88;101678.78;5021099;28;20046;-59
2023/06/12 01:42:27;;;;;;;8.60;5.63;;;;;;;15.21;51.83;101678.00;5020176;28;20065;-59
2023/06/12 01:44:54;;;;;;;11.38;5.60;;;;;;;15.16;51.38;101674.69;5022752;28;20454;-59
2023/06/12 01:47:21;;;;;;;12.63;6.38;;;;;;;15.11;51.75;101673.22;5027504;28;20057;-59
2023/06/12 01:49:48;;;;;;;10.00;6.28;;;;;;;15.08;51.65;101679.56;5027217;28;20050;-59
2023/06/12 01:52:15;;;;;;;9.35;6.47;;;;;;;15.02;51.50;101682.50;5020318;28;20045;-59
2023/06/12 01:54:41;;;;;;;8.32;5.65;;;;;;;14.95;51.36;101686.41;5023670;28;20140;-60
2023/06/12 01:57:08;;;;;;;11.20;5.97;;;;;;;14.96;51.28;101682.84;5022365;28;20056;-59
2023/06/12 01:59:34;;;;;;;7.78;5.28;;;;;;;14.92;50.95;101691.91;5024768;28;20050;-59
2023/06/12 02:02:02;;;;;;;12.10;5.70;;;;;;;14.86;51.19;101688.59;5020855;28;20055;-59
2023/06/12 02:04:31;;;;;;;9.95;5.60;;;;;;;14.77;51.56;101693.50;5023330;28;20482;-59
2023/06/12 02:06:58;;;;;;;8.32;5.72;;;;;;;14.73;51.84;101692.81;5039788;28;20049;-59
2023/06/12 02:09:25;;;;;;;12.10;7.18;;;;;;;14.65;51.66;101692.31;5025316;28;20053;-59
2023/06/12 02:11:51;;;;;;;9.77;5.63;;;;;;;14.65;51.96;101692.31;5018963;28;20054;-59
2023/06/12 02:14:18;;;;;;;10.80;6.07;;;;;;;14.66;51.58;101686.91;5021258;28;20117;-59
2023/06/12 02:16:45;;;;;;;10.32;6.38;;;;;;;14.61;51.99;101688.91;5021244;28;20072;-59
2023/06/12 02:19:12;;;;;;;10.73;5.88;;;;;;;14.62;51.66;101684.47;5023414;28;20103;-59
2023/06/12 02:21:39;;;;;;;8.63;6.50;;;;;;;14.57;51.99;101686.47;5005530;28;20058;-59
2023/06/12 02:24:07;;;;;;;7.03;5.40;;;;;;;14.52;51.87;101693.78;5040929;28;20072;-60
2023/06/12 02:26:33;;;;;;;8.23;5.28;;;;;;;14.43;51.98;101687.09;5009254;28;20050;-60
2023/06/12 02:29:08;;;;;;;8.80;5.78;;;;;;;14.37;52.34;101690.91;5020642;28;20145;-61
2023/06/12 02:31:34;;;;;;;12.60;5.90;;;;;;;14.27;52.60;101689.59;4986678;28;20046;-59
2023/06/12 02:34:01;;;;;;;8.43;5.47;;;;;;;14.24;52.61;101695.09;5022351;28;20053;-59
2023/06/12 02:36:29;;;;;;;7.55;5.50;;;;;;;14.19;52.53;101697.06;5022439;28;20053;-59
2023/06/12 02:38:57;;;;;;;10.43;5.55;;;;;;;14.19;52.19;101700.59;5024543;28;20132;-59
2023/06/12 02:41:23;;;;;;;7.95;6.13;;;;;;;14.20;52.61;101693.47;5026390;28;20064;-59
2023/06/12 02:43:50;;;;;;;8.57;6.10;;;;;;;14.11;52.58;101706.25;5019346;28;20054;-59
2023/06/12 02:46:17;;;;;;;9.27;5.63;;;;;;;14.13;52.39;101707.03;5022716;28;20045;-60
2023/06/12 02:48:43;;;;;;;15.38;6.38;;;;;;;14.13;51.96;101699.06;5042126;28;20476;-60
2023/06/12 02:51:10;;;;;;;12.10;4.95;;;;;;;14.07;52.44;101699.34;5022739;28;20060;-59
2023/06/12 02:53:36;;;;;;;12.50;6.43;;;;;;;14.07;52.55;101698.50;5028701;28;20077;-59
2023/06/12 02:56:03;;;;;;;9.73;5.93;;;;;;;14.06;52.48;101697.63;5018442;28;20049;-59
2023/06/12 02:58:30;;;;;;;10.07;6.18;;;;;;;14.05;52.58;101705.69;5021231;28;20119;-60
2023/06/12 03:00:57;;;;;;;6.20;5.00;;;;;;;14.04;52.34;101699.50;5024503;28;20470;-59
2023/06/12 03:03:25;;;;;;;9.63;5.88;;;;;;;14.07;52.56;101703.81;5023199;28;20041;-59
2023/06/12 03:05:51;;;;;;;8.70;5.97;;;;;;;14.04;52.78;101710.16;5025017;28;20045;-59
2023/06/12 03:08:18;;;;;;;19.23;5.45;;;;;;;14.03;52.33;101704.91;5019204;28;20073;-61
2023/06/12 03:10:45;;;;;;;11.02;5.75;;;;;;;14.03;52.60;101713.72;5023337;28;20041;-61
2023/06/12 03:13:14;;;;;;;13.80;5.47;;;;;;;13.99;52.63;101706.81;5021960;28;20049;-60
2023/06/12 03:15:41;;;;;;;9.13;5.30;;;;;;;13.96;53.29;101712.28;5024988;28;20554;-59
2023/06/12 03:18:07;;;;;;;8.40;5.55;;;;;;;13.96;53.00;101706.97;5022393;28;20459;-59
2023/06/12 03:20:34;;;;;;;8.30;5.43;;;;;;;13.97;52.83;101719.31;5023912;28;20053;-59
2023/06/12 03:23:01;;;;;;;9.48;6.60;;;;;;;13.93;53.03;101712.41;5027753;28;20072;-59
2023/06/12 03:25:27;;;;;;;12.65;5.60;;;;;;;13.88;53.13;101709.97;5022219;28;20169;-59
2023/06/12 03:27:54;;;;;;;7.70;5.82;;;;;;;13.86;53.75;101713.59;5031341;28;20055;-59
2023/06/12 03:30:20;;;;;;;12.90;6.50;;;;;;;13.87;54.63;101718.84;5028249;28;20048;-59
2023/06/12 03:32:47;;;;;;;18.55;6.03;;;;;;;13.84;54.52;101718.13;5033321;28;20137;-60
2023/06/12 03:35:13;;;;;;;12.40;5.85;;;;;;;13.77;54.56;101723.69;5025026;28;20056;-59
2023/06/12 03:37:40;;;;;;;19.00;6.47;;;;;;;13.73;54.91;101722.13;5027507;28;20137;-60
2023/06/12 03:40:07;;;;;;;9.38;5.70;;;;;;;13.71;54.88;101723.97;5026246;28;20046;-59
2023/06/12 03:42:34;;;;;;;13.20;5.80;;;;;;;13.70;54.32;101727.56;5029987;28;20085;-60
2023/06/12 03:45:00;;;;;;;9.02;4.70;;;;;;;13.67;54.02;101721.53;5033257;28;20179;-59
2023/06/12 03:47:27;;;;;;;7.78;5.32;;;;;;;13.74;53.62;101721.19;5027753;28;20061;-59
2023/06/12 03:49:54;;;;;;;9.48;5.93;;;;;;;13.76;54.29;101724.66;5026997;28;20158;-60
2023/06/12 03:52:21;;;;;;;11.57;6.15;;;;;;;13.77;54.31;101728.16;5023550;28;20133;-60
2023/06/12 03:54:49;;;;;;;11.73;5.80;;;;;;;13.89;53.46;101716.13;5025365;28;20042;-60
2023/06/12 03:57:15;;;;;;;10.18;5.18;;;;;;;13.89;53.31;101727.59;5027269;28;20050;-60
2023/06/12 03:59:42;;;;;;;12.00;6.25;;;;;;;13.99;52.98;101728.06;5022330;28;20045;-60
2023/06/12 04:02:09;;;;;;;9.27;5.97;;;;;;;14.02;53.06;101727.09;5024934;28;20046;-60
2023/06/12 04:04:35;;;;;;;8.48;5.40;;;;;;;14.12;52.62;101729.28;5023241;28;20371;-61
2023/06/12 04:07:02;;;;;;;8.48;5.22;;;;;;;14.23;52.16;101725.25;5023784;28;20041;-60
2023/06/12 04:09:30;;;;;;;10.57;5.45;;;;;;;14.25;52.05;101728.69;5028078;28;20060;-60
2023/06/12 04:11:56;;;;;;;7.28;5.03;;;;;;;14.31;52.27;101728.44;5025709;28;20079;-60
2023/06/12 04:14:23;;;;;;;9.63;5.82;;;;;;;14.35;51.65;101724.69;5026019;28;20145;-60
2023/06/12 04:16:49;;;;;;;13.80;5.25;;;;;;;14.36;51.01;101726.41;5021854;28;20409;-60
2023/06/12 04:19:17;;;;;;;9.35;5.43;;;;;;;14.43;50.95;101722.53;5025534;28;20037;-59
2023/06/12 04:21:45;;;;;;;10.05;4.82;;;;;;;14.52;50.61;101725.72;5023295;28;20053;-60
2023/06/12 04:24:15;;;;;;;12.38;4.82;;;;;;;14.53;50.48;101725.63;5028351;28;20099;-59
2023/06/12 04:26:49;;;;;;;10.45;4.30;;;;;;;14.57;51.07;101734.34;5022365;28;20049;-59
2023/06/12 04:29:16;;;;;;;7.10;4.55;;;;;;;14.67;49.87;101735.66;5021112;28;20056;-59
2023/06/12 04:31:42;;;;;;;8.45;4.35;;;;;;;14.81;50.12;101737.66;5025797;28;20049;-60
2023/06/12 04:34:09;;;;;;;10.48;4.97;;;;;;;14.83;50.27;101736.66;5023140;28;20052;-60
2023/06/12 04:36:37;;;;;;;10.75;4.45;;;;;;;14.91;49.71;101732.75;5025598;28;20049;-59
2023/06/12 04:39:11;;;;;;;7.75;4.10;;;;;;;14.92;49.65;101745.13;5025526;28;20041;-59
2023/06/12 04:41:38;;;;;;;8.93;4.88;;;;;;;14.97;49.35;101740.44;5027603;28;20053;-60
2023/06/12 04:44:06;;;;;;;21.00;4.35;;;;;;;15.09;48.77;101731.88;5021625;28;20091;-60
2023/06/12 04:46:33;;;;;;;7.50;4.70;;;;;;;15.23;47.93;101734.72;5022454;28;20084;-59
2023/06/12 04:48:59;;;;;;;10.35;4.95;;;;;;;15.28;48.01;101737.13;5028654;28;20049;-61
2023/06/12 04:51:26;;;;;;;9.57;4.43;;;;;;;15.29;48.09;101738.03;5027418;28;20045;-59
2023/06/12 04:53:53;;;;;;;12.15;4.30;;;;;;;15.42;47.05;101739.13;5028772;28;20045;-60
2023/06/12 04:56:21;;;;;;;6.95;4.68;;;;;;;15.45;46.89;101738.09;5023804;28;20068;-60
2023/06/12 04:58:49;;;;;;;8.57;4.25;;;;;;;15.51;46.79;101741.34;5025882;28;20052;-59
2023/06/12 05:01:19;;;;;;;8.55;4.38;;;;;;;15.68;46.14;101744.94;5027828;28;20049;-59
2023/06/12 05:03:46;;;;;;;8.63;4.23;;;;;;;15.68;45.96;101744.94;5025654;28;20055;-59
2023/06/12 05:06:13;;;;;;;9.07;4.68;;;;;;;15.72;46.14;101746.47;5026696;28;20049;-60
2023/06/12 05:08:40;;;;;;;8.38;4.00;;;;;;;15.78;46.11;101740.88;5033886;28;20060;-59
2023/06/12 05:11:06;;;;;;;9.52;4.50;;;;;;;15.85;45.97;101742.28;5016241;28;20136;-60
2023/06/12 05:13:33;;;;;;;9.43;4.63;;;;;;;15.91;45.81;101728.63;5025728;28;20745;-60
2023/06/12 05:15:59;;;;;;;10.98;4.57;;;;;;;15.96;45.93;101737.25;5017476;28;20053;-59
2023/06/12 05:18:26;;;;;;;7.50;3.65;;;;;;;16.02;45.70;101732.53;5010822;28;20049;-60
2023/06/12 05:20:53;;;;;;;6.38;4.03;;;;;;;16.21;44.53;101743.09;5022617;28;20419;-60
2023/06/12 05:23:19;;;;;;;6.75;3.92;;;;;;;16.31;44.60;101741.63;5022812;28;20057;-59
2023/06/12 05:25:46;;;;;;;12.98;4.10;;;;;;;16.51;43.57;101745.91;5021313;28;20048;-59
2023/06/12 05:28:13;;;;;;;8.35;4.38;;;;;;;16.51;43.52;101745.91;5020297;28;20461;-59
2023/06/12 05:30:39;;;;;;;4.97;3.13;;;;;;;16.69;42.24;101744.88;5018199;28;20132;-59
2023/06/12 05:33:06;;;;;;;6.40;3.47;;;;;;;16.84;41.85;101748.50;5009354;28;20148;-59
2023/06/12 05:35:34;;;;;;;7.50;4.40;;;;;;;16.94;40.78;101746.19;5008110;28;20056;-59
2023/06/12 05:38:01;;;;;;;12.38;3.72;;;;;;;16.98;41.01;101750.41;5023986;28;20057;-59
2023/06/12 05:40:27;;;;;;;9.85;4.20;;;;;;;17.14;40.28;101744.19;5010857;28;20464;-59
2023/06/12 05:42:56;;;;;;;11.27;4.93;;;;;;;17.11;40.91;101739.88;5018017;28;20069;-59
2023/06/12 05:45:22;;;;;;;13.40;3.63;;;;;;;17.24;40.26;101745.38;5027156;28;20046;-59
2023/06/12 05:47:49;;;;;;;15.98;3.75;;;;;;;17.25;40.55;101747.13;5023884;28;20041;-59
2023/06/12 05:50:17;;;;;;;10.07;4.55;;;;;;;17.27;40.96;101750.53;5023616;28;20132;-59
2023/06/12 05:52:44;;;;;;;10.13;5.18;;;;;;;17.35;40.95;101758.97;5022763;28;20403;-59
2023/06/12 05:55:10;;;;;;;9.18;4.30;;;;;;;17.39;40.38;101744.50;5021518;28;20049;-59
2023/06/12 05:57:37;;;;;;;12.45;4.28;;;;;;;17.40;41.27;101740.00;5021024;28;20462;-59
2023/06/12 06:00:06;;;;;;;7.93;4.68;;;;;;;17.51;40.68;101750.06;5024840;28;20077;-58
2023/06/12 06:02:32;;;;;;;14.43;4.13;;;;;;;17.66;40.43;101751.81;5023649;28;20488;-59
2023/06/12 06:04:59;;;;;;;5.72;3.53;;;;;;;17.75;39.91;101751.28;5026249;28;20049;-58
2023/06/12 06:07:26;;;;;;;10.60;4.00;;;;;;;17.85;40.05;101756.06;5020773;28;20045;-60
2023/06/12 06:09:53;;;;;;;7.20;4.00;;;;;;;17.93;39.98;101748.47;5025051;28;20132;-59
2023/06/12 06:12:19;;;;;;;9.93;4.28;;;;;;;17.99;39.55;101753.44;5021006;28;20049;-61
2023/06/12 06:14:46;;;;;;;20.58;4.32;;;;;;;18.06;39.73;101754.78;5019076;28;20144;-59
2023/06/12 06:17:13;;;;;;;12.50;4.90;;;;;;;18.19;39.93;101743.31;5021421;28;20136;-61
2023/06/12 06:19:40;;;;;;;7.65;4.03;;;;;;;18.28;39.94;101753.47;5023540;28;20103;-59
2023/06/12 06:22:07;;;;;;;14.18;4.53;;;;;;;18.43;39.24;101754.31;5022167;28;20065;-60
2023/06/12 06:24:33;;;;;;;11.85;4.13;;;;;;;18.50;39.16;101752.97;5020971;28;20046;-60
2023/06/12 06:27:01;;;;;;;8.10;3.78;;;;;;;18.53;39.30;101750.09;5021134;28;20045;-59
2023/06/12 06:29:27;;;;;;;5.28;3.50;;;;;;;18.63;39.37;101759.25;5021389;28;20059;-60
2023/06/12 06:31:54;;;;;;;9.57;4.15;;;;;;;18.83;38.34;101759.78;5025679;28;20053;-60
2023/06/12 06:34:21;;;;;;;7.40;3.78;;;;;;;18.91;38.42;101764.69;5024476;28;20450;-60
2023/06/12 06:36:48;;;;;;;6.63;3.50;;;;;;;19.01;38.04;101763.13;5025688;28;20049;-59
2023/06/12 06:39:15;;;;;;;13.07;3.50;;;;;;;19.11;38.28;101761.59;5010816;28;20080;-59
2023/06/12 06:41:41;;;;;;;10.93;4.50;;;;;;;19.20;38.38;101762.78;5025996;28;20088;-59
2023/06/12 06:44:08;;;;;;;8.02;3.75;;;;;;;19.40;38.16;101758.78;5023293;28;20140;-59
2023/06/12 06:46:34;;;;;;;8.95;3.60;;;;;;;19.49;37.68;101773.41;5023381;28;20042;-59
2023/06/12 06:49:01;;;;;;;10.38;4.32;;;;;;;19.59;37.84;101764.63;5024962;28;20045;-59
2023/06/12 06:51:29;;;;;;;8.70;3.70;;;;;;;19.69;37.13;101774.72;5022042;28;20054;-60
2023/06/12 06:53:57;;;;;;;9.32;4.80;;;;;;;19.80;37.08;101772.22;5021600;28;20046;-59
2023/06/12 06:56:24;;;;;;;16.90;4.65;;;;;;;19.91;37.00;101769.66;5022597;28;20188;-59
2023/06/12 06:58:50;;;;;;;8.45;3.90;;;;;;;20.10;37.10;101773.72;5024023;28;20041;-59
2023/06/12 07:01:17;;;;;;;10.02;3.90;;;;;;;20.22;36.10;101778.25;5022934;28;20167;-60
2023/06/12 07:03:44;;;;;;;16.33;4.97;;;;;;;20.32;36.56;101773.94;5026354;28;20057;-59
2023/06/12 07:06:11;;;;;;;7.20;3.85;;;;;;;20.36;36.94;101767.38;5005793;28;20073;-61
2023/06/12 07:08:37;;;;;;;7.22;4.40;;;;;;;20.49;36.20;101774.56;5010828;28;20042;-60
2023/06/12 07:11:04;;;;;;;9.90;3.47;;;;;;;20.58;36.05;101779.28;5022890;28;20080;-60
2023/06/12 07:13:30;;;;;;;16.20;4.75;;;;;;;20.68;36.15;101772.28;5020946;28;20049;-59
2023/06/12 07:15:57;;;;;;;10.50;4.00;;;;;;;20.75;35.80;101771.84;5019464;28;20224;-59
2023/06/12 07:18:27;;;;;;;4.80;3.28;;;;;;;20.85;35.01;101764.84;5022434;28;20454;-61
2023/06/12 07:20:54;;;;;;;11.00;4.45;;;;;;;20.88;34.84;101770.00;5026106;28;20148;-60
2023/06/12 07:23:20;;;;;;;6.63;3.67;;;;;;;20.98;34.96;101776.41;5025173;28;20059;-60
2023/06/12 07:25:47;;;;;;;6.25;4.18;;;;;;;21.08;34.71;101772.03;5036164;28;20188;-59
2023/06/12 07:28:14;;;;;;;9.15;3.80;;;;;;;21.26;35.15;101779.72;5025350;28;20049;-61
2023/06/12 07:30:40;;;;;;;6.30;3.95;;;;;;;21.42;34.37;101780.28;5025808;28;20037;-59
2023/06/12 07:33:07;;;;;;;7.15;3.95;;;;;;;21.49;33.85;101769.94;5021673;28;20628;-59
2023/06/12 07:35:33;;;;;;;10.52;3.53;;;;;;;21.74;33.86;101771.63;5024246;28;20686;-60
2023/06/12 07:38:00;;;;;;;8.68;3.70;;;;;;;21.87;33.27;101767.97;5022693;28;20111;-62
2023/06/12 07:40:27;;;;;;;7.47;4.13;;;;;;;22.01;33.04;101775.84;5024797;28;20057;-59
2023/06/12 07:42:53;;;;;;;7.72;3.25;;;;;;;22.05;32.74;101774.63;5022576;28;20088;-59
2023/06/12 07:45:20;;;;;;;10.90;3.22;;;;;;;22.08;32.08;101771.69;5022605;28;20063;-59
2023/06/12 07:47:49;;;;;;;10.55;3.85;;;;;;;22.21;31.48;101768.03;5001891;28;20049;-60
2023/06/12 07:50:16;;;;;;;6.47;3.35;;;;;;;22.33;32.07;101767.06;5021385;28;20050;-60
2023/06/12 07:52:42;;;;;;;8.05;3.58;;;;;;;22.33;31.34;101769.78;5019857;28;20170;-60
2023/06/12 07:55:10;;;;;;;11.30;3.60;;;;;;;22.45;30.94;101763.41;5025035;28;20376;-61
2023/06/12 07:57:37;;;;;;;10.43;3.92;;;;;;;22.47;30.82;101764.13;5025166;28;20053;-61
2023/06/12 08:00:05;;;;;;;7.65;3.40;;;;;;;22.49;30.58;101759.50;5022012;28;20184;-61
2023/06/12 08:02:33;;;;;;;8.20;3.50;;;;;;;22.49;30.09;101764.91;5023197;28;20148;-61
2023/06/12 08:05:01;;;;;;;10.63;3.47;;;;;;;22.58;30.16;101768.69;5023456;28;20057;-60
2023/06/12 08:07:28;;;;;;;10.88;3.35;;;;;;;22.60;29.21;101758.63;5023422;28;20084;-60
2023/06/12 08:09:55;;;;;;;5.05;3.30;;;;;;;22.68;30.13;101758.00;5023525;28;20518;-59
2023/06/12 08:12:22;;;;;;;9.98;3.40;;;;;;;22.69;29.75;101754.31;5020987;28;20060;-60
2023/06/12 08:14:51;;;;;;;11.98;3.17;;;;;;;22.76;28.68;101750.16;5024573;28;20045;-60
2023/06/12 08:17:18;;;;;;;7.47;3.60;;;;;;;22.82;29.04;101748.78;5025230;28;20421;-59
2023/06/12 08:19:44;;;;;;;5.88;3.42;;;;;;;23.01;28.79;101758.91;5026561;28;20045;-59
2023/06/12 08:22:11;;;;;;;4.85;3.20;;;;;;;22.91;28.61;101764.22;5022954;28;20403;-59
2023/06/12 08:24:41;;;;;;;8.13;3.63;;;;;;;22.98;26.42;101764.56;5019919;28;20173;-59
2023/06/12 08:27:07;;;;;;;5.93;3.28;;;;;;;23.18;27.87;101753.03;5024996;28;20100;-59
2023/06/12 09:21:07;;;;;;;8.67;3.17;;;;;;;23.94;26.81;101725.03;2356089;29;1116897;-61
2023/06/12 09:23:36;;;;;;;8.65;3.38;;;;;;;23.92;27.39;101721.63;4817622;29;20174;-63
2023/06/12 09:26:11;;;;;;;9.48;4.22;;;;;;;24.12;27.35;101722.56;4824014;29;20472;-62
2023/06/12 09:28:42;;;;;;;9.95;3.47;;;;;;;24.37;26.70;101724.81;4822895;29;20066;-62
2023/06/12 09:31:14;;;;;;;6.43;3.60;;;;;;;24.49;27.04;101724.72;4824399;29;20118;-62
2023/06/12 09:33:41;;;;;;;7.00;3.28;;;;;;;24.26;27.08;101724.91;4819922;29;20126;-63
2023/06/12 09:36:11;;;;;;;10.27;2.95;;;;;;;24.48;26.81;101723.00;4823734;29;20087;-60
2023/06/12 09:38:38;;;;;;;6.63;3.50;;;;;;;24.20;26.99;101720.06;4820613;29;20043;-59
2023/06/12 09:41:07;;;;;;;6.20;3.30;;;;;;;24.11;27.10;101723.56;4820943;29;20089;-60
2023/06/12 09:43:34;;;;;;;5.97;3.20;;;;;;;24.09;27.92;101712.03;4821167;29;20050;-60
2023/06/12 09:46:03;;;;;;;7.45;3.72;;;;;;;24.24;27.27;101718.78;4814193;29;20053;-60
2023/06/12 09:48:38;;;;;;;8.43;3.47;;;;;;;24.66;26.77;101724.06;4817340;29;20217;-58
2023/06/12 09:51:07;;;;;;;6.72;3.13;;;;;;;25.04;26.68;101708.91;4819652;29;20050;-63
2023/06/12 09:53:38;;;;;;;5.05;3.47;;;;;;;25.14;26.49;101717.00;4819457;29;20113;-64
2023/06/12 09:56:09;;;;;;;9.38;3.92;;;;;;;25.27;25.91;101719.44;4815081;29;20060;-60
2023/06/12 09:58:38;;;;;;;9.15;3.53;;;;;;;24.96;25.75;101716.84;4810168;29;20058;-60
2023/06/12 10:01:07;;;;;;;8.52;4.10;;;;;;;25.07;26.07;101710.44;4816825;29;20070;-62
2023/06/12 10:03:37;;;;;;;10.82;4.15;;;;;;;25.17;25.76;101713.16;4819427;29;20057;-61
2023/06/12 10:06:06;;;;;;;10.68;3.83;;;;;;;25.35;25.90;101703.34;4817551;29;20058;-60
2023/06/12 10:08:36;;;;;;;5.20;3.25;;;;;;;24.78;26.40;101707.72;4822692;29;20058;-62
2023/06/12 10:11:04;;;;;;;7.95;3.35;;;;;;;25.12;25.75;101707.34;4821118;29;20412;-64
2023/06/12 10:13:31;;;;;;;9.20;3.50;;;;;;;25.16;26.10;101716.84;4821834;29;20086;-61
2023/06/12 10:15:59;;;;;;;11.13;3.70;;;;;;;25.46;25.47;101707.75;4819794;29;20051;-59
2023/06/12 10:18:28;;;;;;;5.55;2.63;;;;;;;25.43;25.32;101698.06;4819055;29;20573;-61
2023/06/12 10:20:56;;;;;;;6.97;3.70;;;;;;;25.71;25.73;101710.84;4818933;29;20058;-62
2023/06/12 10:23:24;;;;;;;6.88;3.72;;;;;;;26.04;25.35;101701.38;4817949;29;20054;-58
2023/06/12 10:25:52;;;;;;;7.63;3.55;;;;;;;25.70;24.70;101701.88;4811407;29;20074;-61
2023/06/12 10:28:19;;;;;;;4.75;3.00;;;;;;;25.71;25.72;101700.88;4813104;29;20095;-60
2023/06/12 10:31:10;;;;;;;7.03;3.20;;;;;;;26.03;24.23;101694.25;4813442;29;20083;-62
2023/06/12 10:33:38;;;;;;;6.80;3.30;;;;;;;26.23;24.90;101697.72;4811411;29;20054;-61
2023/06/12 10:36:11;;;;;;;18.35;3.88;;;;;;;25.98;24.85;101699.25;4811833;29;20137;-60
2023/06/12 10:38:46;;;;;;;14.40;3.92;;;;;;;26.26;24.72;101699.28;4811262;29;20057;-59
2023/06/12 10:41:29;;;;;;;11.63;3.97;;;;;;;26.21;25.80;101696.19;4815382;29;20047;-59
2023/06/12 10:43:55;;;;;;;6.90;4.32;;;;;;;25.99;26.42;101698.25;4813406;29;20149;-62
2023/06/12 10:46:45;;;;;;;5.28;3.83;;;;;;;26.58;25.19;101697.97;4812375;29;20123;-62
2023/06/12 10:49:13;;;;;;;10.13;3.47;;;;;;;27.29;25.70;101687.19;4816477;29;20672;-60
2023/06/12 10:51:47;;;;;;;6.47;4.25;;;;;;;27.45;25.81;101691.03;4821183;29;20134;-61
2023/06/12 10:54:15;;;;;;;5.63;3.95;;;;;;;26.08;27.53;101693.81;4815987;29;20063;-61
2023/06/12 10:57:02;;;;;;;9.45;3.95;;;;;;;26.49;27.54;101695.16;4820759;29;20153;-61
2023/06/12 10:59:33;;;;;;;6.22;3.38;;;;;;;25.94;28.72;101700.50;4817103;29;20145;-62
2023/06/12 11:02:00;;;;;;;;;;;;;;;26.61;27.58;101697.66;4819838;29;20118;-62
2023/06/12 11:04:26;;;;;;;6.13;3.47;;;;;;;26.43;27.54;101692.19;4815311;29;20264;-62
2023/06/12 11:06:54;;;;;;;6.50;3.35;;;;;;;26.32;27.63;101682.44;4817979;29;20062;-63
2023/06/12 11:09:22;;;;;;;6.65;3.60;;;;;;;26.00;28.45;101683.72;4814585;29;20112;-59
2023/06/12 11:11:49;;;;;;;7.32;3.75;;;;;;;26.24;27.72;101680.47;4816965;29;20047;-63
2023/06/12 11:14:16;;;;;;;8.38;3.00;;;;;;;25.93;28.25;101675.31;4815078;29;20054;-60
2023/06/12 11:16:45;;;;;;;7.38;4.03;;;;;;;25.91;28.27;101668.31;4818440;29;20150;-61
2023/06/12 11:19:12;;;;;;;6.03;3.05;;;;;;;26.92;26.48;101669.22;4816010;29;20054;-60
2023/06/12 11:21:39;;;;;;;7.80;3.72;;;;;;;29.31;23.23;101654.00;4818680;29;20142;-61
2023/06/12 11:24:07;;;;;;;6.35;3.35;;;;;;;30.98;22.14;101654.84;4816452;29;20050;-60
2023/06/12 11:26:34;;;;;;;6.38;3.72;;;;;;;30.66;20.44;101639.53;4818530;29;20489;-60
2023/06/12 11:29:15;;;;;;;19.90;4.15;;;;;;;29.22;22.74;101652.31;4816770;29;20069;-60
2023/06/12 11:31:49;;;;;;;5.28;3.70;;;;;;;27.91;24.38;101641.94;4819307;29;20051;-61
2023/06/12 11:34:16;;;;;;;8.95;3.33;;;;;;;28.06;24.14;101639.47;4815816;29;20051;-62
2023/06/12 11:36:42;;;;;;;8.93;3.75;;;;;;;27.74;24.68;101640.97;4820619;29;20046;-62
2023/06/12 11:39:17;;;;;;;4.75;3.63;;;;;;;27.49;25.15;101645.41;4815623;29;20051;-63
2023/06/12 11:41:49;;;;;;;11.02;3.67;;;;;;;28.27;23.43;101645.31;4818738;29;20054;-59
2023/06/12 11:44:16;;;;;;;10.68;3.38;;;;;;;27.89;23.74;101642.09;4817696;29;20054;-58
2023/06/12 11:46:44;;;;;;;5.57;3.05;;;;;;;29.63;21.92;101638.59;4823399;29;20077;-59
2023/06/12 11:49:13;;;;;;;16.17;4.18;;;;;;;31.41;19.70;101637.91;4821452;29;20058;-60
2023/06/12 11:51:40;;;;;;;10.40;3.63;;;;;;;32.08;18.21;101633.41;4824124;29;20061;-59
2023/06/12 11:54:09;;;;;;;4.75;3.40;;;;;;;32.81;17.60;101627.91;4823819;29;20065;-59
2023/06/12 11:56:40;;;;;;;6.43;3.28;;;;;;;33.05;17.08;101629.38;4823958;29;20054;-62
2023/06/12 11:59:10;;;;;;;4.65;3.10;;;;;;;34.29;16.15;101630.59;4824069;29;20134;-61
2023/06/12 12:01:37;;;;;;;3.78;3.08;;;;;;;34.14;16.63;101628.81;4825506;29;20086;-61
2023/06/12 12:04:05;;;;;;;7.53;3.50;;;;;;;34.61;16.05;101628.97;4825425;29;20065;-60
2023/06/12 12:06:46;;;;;;;16.55;4.85;;;;;;;35.29;14.98;101620.59;4824808;29;20063;-58
2023/06/12 12:09:13;;;;;;;6.72;3.40;;;;;;;34.64;15.82;101622.22;4824474;29;20046;-58
2023/06/12 12:11:40;;;;;;;5.82;2.95;;;;;;;34.34;16.27;101630.81;4825499;29;20345;-60
2023/06/12 12:14:07;;;;;;;6.70;3.25;;;;;;;32.02;18.67;101616.72;4825054;29;20148;-59
2023/06/12 12:16:43;;;;;;;6.10;3.03;;;;;;;33.44;17.74;101615.16;4824386;29;20062;-58
2023/06/12 12:19:25;;;;;;;10.45;3.42;;;;;;;34.56;16.77;101609.56;4814501;29;20057;-59